Time;durP1;ratioP1;P1;durP2;ratioP2;P2;SDS_P1;SDS_P2;PMS_P1;PMS_P2;Temp;Humidity;BMP_temperature;BMP_pressure;BME280_temperature;BME280_humidity;BME280_pressure;Samples;Min_cycle;Max_cycle;Signal;HPM_P1;HPM_P2
2023/12/18 00:00:54;;;;;;;;;;;9.00;99.90;;;;;;5106698;28;20400;-70
2023/12/18 00:03:19;;;;;;;;;;;9.10;99.90;;;;;;5101391;27;20400;-70
2023/12/18 00:05:45;;;;;;;;;;;9.10;99.90;;;;;;5095386;27;19930;-70
2023/12/18 00:08:11;;;;;;;;;;;9.00;99.90;;;;;;5099241;28;19928;-70
2023/12/18 00:10:37;;;;;;;;;;;9.00;99.90;;;;;;5106037;28;19988;-70
2023/12/18 00:13:02;;;;;;;;;;;9.00;99.90;;;;;;5096964;28;19980;-69
2023/12/18 00:15:28;;;;;;;;;;;9.00;99.90;;;;;;5101723;28;20296;-70
2023/12/18 00:17:53;;;;;;;;;;;9.00;99.90;;;;;;5103027;28;19924;-70
2023/12/18 00:20:19;;;;;;;;;;;9.10;99.90;;;;;;5097642;28;19979;-70
2023/12/18 00:22:44;;;;;;;;;;;9.00;99.90;;;;;;5101029;28;20293;-70
2023/12/18 00:25:10;;;;;;;;;;;9.10;99.90;;;;;;5096612;28;19935;-69
2023/12/18 00:27:35;;;;;;;;;;;9.10;99.90;;;;;;5103599;27;20294;-70
2023/12/18 00:30:01;;;;;;;;;;;9.10;99.90;;;;;;5094379;28;20410;-70
2023/12/18 00:32:26;;;;;;;;;;;9.10;99.90;;;;;;5101085;28;19924;-70
2023/12/18 00:34:52;;;;;;;;;;;9.10;99.90;;;;;;5097272;28;20437;-70
2023/12/18 00:37:17;;;;;;;;;;;9.10;99.90;;;;;;5100496;28;19924;-70
2023/12/18 00:39:43;;;;;;;;;;;9.20;99.90;;;;;;5086531;28;19924;-70
2023/12/18 00:42:08;;;;;;;;;;;9.20;99.90;;;;;;5104485;28;19955;-70
2023/12/18 00:44:34;;;;;;;;;;;9.10;99.90;;;;;;5103146;28;19928;-70
2023/12/18 00:46:59;;;;;;;;;;;9.10;99.90;;;;;;5106280;28;19969;-70
2023/12/18 00:49:27;;;;;;;;;;;9.10;99.90;;;;;;5104198;28;19932;-69
2023/12/18 00:51:53;;;;;;;;;;;9.10;99.90;;;;;;5105081;28;19931;-70
2023/12/18 00:54:19;;;;;;;;;;;9.10;99.90;;;;;;5106963;28;19924;-71
2023/12/18 00:56:44;;;;;;;;;;;9.10;99.90;;;;;;5107461;28;19932;-71
2023/12/18 00:59:10;;;;;;;;;;;9.10;99.90;;;;;;5107875;28;19931;-70
2023/12/18 01:01:36;;;;;;;;;;;9.10;99.90;;;;;;5107654;28;20367;-70
2023/12/18 01:04:01;;;;;;;;;;;9.10;99.90;;;;;;5108262;28;19931;-70
2023/12/18 01:06:27;;;;;;;;;;;9.10;99.90;;;;;;5089616;28;19971;-70
2023/12/18 01:08:52;;;;;;;;;;;9.10;99.90;;;;;;5105421;28;19990;-70
2023/12/18 01:11:18;;;;;;;;;;;9.10;99.90;;;;;;5105460;28;20026;-70
2023/12/18 01:13:43;;;;;;;;;;;9.10;99.90;;;;;;5108289;27;19957;-70
2023/12/18 01:16:09;;;;;;;;;;;9.10;99.90;;;;;;5103513;28;19967;-70
2023/12/18 01:18:34;;;;;;;;;;;9.00;99.90;;;;;;5109195;28;19963;-70
2023/12/18 01:21:02;;;;;;;;;;;9.10;99.90;;;;;;5108301;28;19935;-70
2023/12/18 01:23:27;;;;;;;;;;;9.10;99.90;;;;;;5108794;28;19931;-70
2023/12/18 01:25:53;;;;;;;;;;;9.10;99.90;;;;;;5109197;28;20359;-70
2023/12/18 01:28:18;;;;;;;;;;;9.10;99.90;;;;;;5106777;28;19970;-70
2023/12/18 01:30:44;;;;;;;;;;;9.10;99.90;;;;;;5106264;28;19949;-70
2023/12/18 01:33:09;;;;;;;;;;;9.10;99.90;;;;;;5106673;28;20008;-70
2023/12/18 01:35:35;;;;;;;;;;;9.10;99.90;;;;;;5106359;28;19924;-70
2023/12/18 01:38:00;;;;;;;;;;;9.10;99.90;;;;;;5112077;28;19928;-70
2023/12/18 01:40:26;;;;;;;;;;;9.10;99.90;;;;;;5107806;28;20321;-70
2023/12/18 01:42:52;;;;;;;;;;;9.10;99.90;;;;;;5106545;28;19924;-70
2023/12/18 01:45:18;;;;;;;;;;;9.10;99.90;;;;;;5099940;28;19920;-70
2023/12/18 01:47:43;;;;;;;;;;;9.10;99.90;;;;;;5104253;28;20677;-70
2023/12/18 01:50:09;;;;;;;;;;;9.10;99.90;;;;;;5108487;27;19923;-70
2023/12/18 01:52:35;;;;;;;;;;;9.10;99.90;;;;;;5109899;28;19946;-71
2023/12/18 01:55:01;;;;;;;;;;;9.10;99.90;;;;;;5107994;28;19949;-70
2023/12/18 01:57:27;;;;;;;;;;;9.00;99.90;;;;;;5104148;28;19924;-70
2023/12/18 01:59:53;;;;;;;;;;;9.00;99.90;;;;;;5090644;28;19927;-70
2023/12/18 02:02:19;;;;;;;;;;;9.10;99.90;;;;;;5106233;27;19936;-70
2023/12/18 02:04:45;;;;;;;;;;;9.10;99.90;;;;;;5108356;28;19981;-70
2023/12/18 02:07:10;;;;;;;;;;;9.00;99.90;;;;;;5102724;28;19932;-70
2023/12/18 02:09:36;;;;;;;;;;;9.00;99.90;;;;;;5105721;28;19924;-70
2023/12/18 02:12:02;;;;;;;;;;;9.00;99.90;;;;;;5106222;28;20001;-70
2023/12/18 02:14:28;;;;;;;;;;;9.00;99.90;;;;;;5101586;28;19924;-70
2023/12/18 02:16:53;;;;;;;;;;;9.00;99.90;;;;;;5107281;28;19939;-70
2023/12/18 02:19:22;;;;;;;;;;;9.00;99.90;;;;;;5103261;28;19924;-69
2023/12/18 02:21:48;;;;;;;;;;;9.00;99.90;;;;;;5104210;28;20546;-70
2023/12/18 02:24:13;;;;;;;;;;;9.00;99.90;;;;;;5105181;28;19935;-70
2023/12/18 02:26:39;;;;;;;;;;;9.00;99.90;;;;;;5103849;28;20196;-70
2023/12/18 02:29:05;;;;;;;;;;;9.00;99.90;;;;;;5090978;28;20375;-70
2023/12/18 02:31:30;;;;;;;;;;;9.00;99.90;;;;;;5100070;28;19928;-70
2023/12/18 02:33:56;;;;;;;;;;;9.00;99.90;;;;;;5108136;28;19975;-70
2023/12/18 02:36:22;;;;;;;;;;;9.00;99.90;;;;;;5105258;27;19943;-70
2023/12/18 02:38:47;;;;;;;;;;;9.00;99.90;;;;;;5087054;28;19924;-70
2023/12/18 02:41:13;;;;;;;;;;;9.00;99.90;;;;;;5108348;28;19924;-70
2023/12/18 02:43:38;;;;;;;;;;;9.00;99.90;;;;;;5089834;28;19927;-70
2023/12/18 02:46:04;;;;;;;;;;;9.00;99.90;;;;;;5087418;28;20294;-70
2023/12/18 02:48:29;;;;;;;;;;;9.00;99.90;;;;;;5105092;28;19924;-70
2023/12/18 02:50:55;;;;;;;;;;;9.00;99.90;;;;;;5107843;28;19931;-70
2023/12/18 02:53:20;;;;;;;;;;;9.00;99.90;;;;;;5105603;28;19935;-70
2023/12/18 02:55:46;;;;;;;;;;;9.00;99.90;;;;;;5101152;28;20378;-70
2023/12/18 02:58:11;;;;;;;;;;;9.00;99.90;;;;;;5109472;28;19931;-71
2023/12/18 03:00:37;;;;;;;;;;;9.00;99.90;;;;;;5099057;28;19931;-70
2023/12/18 03:03:03;;;;;;;;;;;9.00;99.90;;;;;;5090734;28;19927;-70
2023/12/18 03:05:28;;;;;;;;;;;8.90;99.90;;;;;;5088172;27;19955;-70
2023/12/18 03:07:54;;;;;;;;;;;8.90;99.90;;;;;;5100543;28;19924;-70
2023/12/18 03:10:19;;;;;;;;;;;9.00;99.90;;;;;;5108224;28;19924;-70
2023/12/18 03:12:44;;;;;;;;;;;9.00;99.90;;;;;;5107263;28;19932;-70
2023/12/18 03:15:10;;;;;;;;;;;9.00;99.90;;;;;;5105806;28;20374;-70
2023/12/18 03:17:36;;;;;;;;;;;9.00;99.90;;;;;;5106871;28;19931;-70
2023/12/18 03:20:01;;;;;;;;;;;9.00;99.90;;;;;;5108128;28;20383;-70
2023/12/18 03:22:27;;;;;;;;;;;9.00;99.90;;;;;;5089872;28;19931;-70
2023/12/18 03:24:52;;;;;;;;;;;9.00;99.90;;;;;;5107161;28;19924;-70
2023/12/18 03:27:18;;;;;;;;;;;9.00;99.90;;;;;;5104815;28;19938;-70
2023/12/18 03:29:43;;;;;;;;;;;8.90;99.90;;;;;;5105897;28;19947;-69
2023/12/18 03:32:09;;;;;;;;;;;9.00;99.90;;;;;;5102590;28;19925;-70
2023/12/18 03:34:34;;;;;;;;;;;9.00;99.90;;;;;;5107136;28;20438;-70
2023/12/18 03:37:00;;;;;;;;;;;9.00;99.90;;;;;;5110406;28;19935;-70
2023/12/18 03:39:25;;;;;;;;;;;9.00;99.90;;;;;;5104398;28;19923;-69
2023/12/18 03:41:51;;;;;;;;;;;9.00;99.90;;;;;;5087174;28;19928;-69
2023/12/18 03:44:16;;;;;;;;;;;9.00;99.90;;;;;;5088067;28;19924;-70
2023/12/18 03:46:42;;;;;;;;;;;9.00;99.90;;;;;;5103352;28;19927;-70
2023/12/18 03:49:08;;;;;;;;;;;9.00;99.90;;;;;;5104847;28;19930;-69
2023/12/18 03:51:33;;;;;;;;;;;9.00;99.90;;;;;;5105198;28;20397;-70
2023/12/18 03:53:59;;;;;;;;;;;9.00;99.90;;;;;;5089298;28;19924;-70
2023/12/18 03:56:24;;;;;;;;;;;8.90;99.90;;;;;;5106425;28;19924;-71
2023/12/18 03:58:50;;;;;;;;;;;9.00;99.90;;;;;;5089342;28;20378;-70
2023/12/18 04:01:15;;;;;;;;;;;9.00;99.90;;;;;;5104383;28;19927;-70
2023/12/18 04:03:41;;;;;;;;;;;9.00;99.90;;;;;;5105373;28;19932;-70
2023/12/18 04:06:07;;;;;;;;;;;9.10;99.90;;;;;;5099552;28;19920;-70
2023/12/18 04:08:32;;;;;;;;;;;9.00;99.90;;;;;;5098605;28;19928;-70
2023/12/18 04:10:58;;;;;;;;;;;9.10;99.90;;;;;;5105847;28;19934;-70
2023/12/18 04:13:23;;;;;;;;;;;9.00;99.90;;;;;;5105441;28;20283;-70
2023/12/18 04:15:49;;;;;;;;;;;9.10;99.90;;;;;;5102135;28;19928;-70
2023/12/18 04:18:15;;;;;;;;;;;9.00;99.90;;;;;;5104418;28;19924;-70
2023/12/18 04:20:40;;;;;;;;;;;9.10;99.90;;;;;;5105010;28;19987;-70
2023/12/18 04:23:06;;;;;;;;;;;9.10;99.90;;;;;;5103692;28;20041;-70
2023/12/18 04:25:31;;;;;;;;;;;9.10;99.90;;;;;;5101813;28;20019;-70
2023/12/18 04:27:57;;;;;;;;;;;9.10;99.90;;;;;;5108186;28;19943;-70
2023/12/18 04:30:22;;;;;;;;;;;9.00;99.90;;;;;;5101785;28;19928;-70
2023/12/18 04:32:48;;;;;;;;;;;9.10;99.90;;;;;;5101469;28;19998;-70
2023/12/18 04:35:13;;;;;;;;;;;9.10;99.90;;;;;;5103358;28;20347;-70
2023/12/18 04:37:39;;;;;;;;;;;9.00;99.90;;;;;;5103595;28;20177;-70
2023/12/18 04:40:04;;;;;;;;;;;9.00;99.90;;;;;;5106177;28;19924;-70
2023/12/18 04:42:30;;;;;;;;;;;9.00;99.90;;;;;;5106295;28;20158;-70
2023/12/18 04:44:56;;;;;;;;;;;9.00;99.90;;;;;;5086860;28;20290;-70
2023/12/18 04:47:21;;;;;;;;;;;9.00;99.90;;;;;;5107555;28;20413;-70
2023/12/18 04:49:47;;;;;;;;;;;9.10;99.90;;;;;;5107100;28;20028;-70
2023/12/18 04:52:12;;;;;;;;;;;9.10;99.90;;;;;;5104706;28;19935;-70
2023/12/18 04:54:38;;;;;;;;;;;9.00;99.90;;;;;;5102321;28;19924;-70
2023/12/18 04:57:04;;;;;;;;;;;9.00;99.90;;;;;;5105189;28;20453;-70
2023/12/18 04:59:29;;;;;;;;;;;9.00;99.90;;;;;;5104027;28;20322;-71
2023/12/18 05:01:55;;;;;;;;;;;9.00;99.90;;;;;;5099580;28;20019;-70
2023/12/18 05:04:20;;;;;;;;;;;9.10;99.90;;;;;;5101510;28;19929;-70
2023/12/18 05:06:46;;;;;;;;;;;9.00;99.90;;;;;;5103539;28;19924;-70
2023/12/18 05:09:11;;;;;;;;;;;9.10;99.90;;;;;;5104471;28;19969;-70
2023/12/18 05:11:37;;;;;;;;;;;9.00;99.90;;;;;;5104973;28;19935;-70
2023/12/18 05:14:02;;;;;;;;;;;9.10;99.90;;;;;;5103215;28;19959;-70
2023/12/18 05:16:28;;;;;;;;;;;9.10;99.90;;;;;;5105725;28;20496;-70
2023/12/18 05:18:54;;;;;;;;;;;9.00;99.90;;;;;;5105786;28;19939;-70
2023/12/18 05:21:19;;;;;;;;;;;9.10;99.90;;;;;;5103188;28;20437;-70
2023/12/18 05:23:47;;;;;;;;;;;9.10;99.90;;;;;;5102572;28;19932;-70
2023/12/18 05:26:12;;;;;;;;;;;9.00;99.90;;;;;;5105375;28;20424;-70
2023/12/18 05:28:38;;;;;;;;;;;9.00;99.90;;;;;;5103616;28;19971;-70
2023/12/18 05:31:04;;;;;;;;;;;9.00;99.90;;;;;;5102597;28;19939;-70
2023/12/18 05:33:29;;;;;;;;;;;9.00;99.90;;;;;;5104233;28;19924;-70
2023/12/18 05:35:55;;;;;;;;;;;9.10;99.90;;;;;;5106534;28;20416;-70
2023/12/18 05:38:20;;;;;;;;;;;9.00;99.90;;;;;;5106968;28;19927;-70
2023/12/18 05:40:46;;;;;;;;;;;9.00;99.90;;;;;;5090543;28;19924;-70
2023/12/18 05:43:11;;;;;;;;;;;9.00;99.90;;;;;;5106551;28;19931;-70
2023/12/18 05:45:37;;;;;;;;;;;9.10;99.90;;;;;;5103805;27;19924;-70
2023/12/18 05:48:02;;;;;;;;;;;9.10;99.90;;;;;;5112524;28;19928;-70
2023/12/18 05:50:28;;;;;;;;;;;9.10;99.90;;;;;;5110289;27;20297;-71
2023/12/18 05:52:53;;;;;;;;;;;9.10;99.90;;;;;;5108673;27;20340;-71
2023/12/18 05:55:19;;;;;;;;;;;9.00;99.90;;;;;;5109699;28;19931;-70
2023/12/18 05:57:44;;;;;;;;;;;9.00;99.90;;;;;;5112029;28;20419;-70
2023/12/18 06:00:10;;;;;;;;;;;9.00;99.90;;;;;;5107027;27;19938;-70
2023/12/18 06:02:36;;;;;;;;;;;9.00;99.90;;;;;;5106975;27;19931;-71
2023/12/18 06:05:02;;;;;;;;;;;9.10;99.90;;;;;;5107270;28;19923;-72
2023/12/18 06:07:27;;;;;;;;;;;9.10;99.90;;;;;;5103622;27;19924;-71
2023/12/18 06:09:53;;;;;;;;;;;9.10;99.90;;;;;;5106545;28;20417;-71
2023/12/18 06:12:18;;;;;;;;;;;9.10;99.90;;;;;;5107980;28;19934;-71
2023/12/18 06:14:44;;;;;;;;;;;9.00;99.90;;;;;;5106108;28;19951;-70
2023/12/18 06:17:10;;;;;;;;;;;9.10;99.90;;;;;;5104358;28;20321;-70
2023/12/18 06:19:35;;;;;;;;;;;9.10;99.90;;;;;;5105126;27;19931;-71
2023/12/18 06:22:01;;;;;;;;;;;9.10;99.90;;;;;;5106279;27;19953;-70
2023/12/18 06:24:27;;;;;;;;;;;9.00;99.90;;;;;;5105671;28;19924;-72
2023/12/18 06:26:53;;;;;;;;;;;9.00;99.90;;;;;;5101051;27;19930;-72
2023/12/18 06:29:19;;;;;;;;;;;9.10;99.90;;;;;;5104178;28;19924;-72
2023/12/18 06:31:44;;;;;;;;;;;9.10;99.90;;;;;;5102688;28;19963;-71
2023/12/18 06:34:11;;;;;;;;;;;9.10;99.90;;;;;;5108312;27;19965;-70
2023/12/18 06:36:37;;;;;;;;;;;9.00;99.90;;;;;;5109314;27;19924;-71
2023/12/18 06:39:03;;;;;;;;;;;9.10;99.90;;;;;;5108309;28;19928;-71
2023/12/18 06:41:28;;;;;;;;;;;9.10;99.90;;;;;;5106883;28;19962;-72
2023/12/18 06:43:54;;;;;;;;;;;9.10;99.90;;;;;;5110719;28;19967;-71
2023/12/18 06:46:19;;;;;;;;;;;9.00;99.90;;;;;;5105876;28;19923;-70
2023/12/18 06:48:45;;;;;;;;;;;9.10;99.90;;;;;;5104073;28;19936;-71
2023/12/18 06:51:10;;;;;;;;;;;9.00;99.90;;;;;;5066194;28;19932;-71
2023/12/18 06:53:36;;;;;;;;;;;9.00;99.90;;;;;;5083114;28;19931;-72
2023/12/18 06:56:02;;;;;;;;;;;9.10;99.90;;;;;;5068713;28;19928;-78
2023/12/18 06:58:27;;;;;;;;;;;9.00;99.90;;;;;;5100666;28;20617;-71
2023/12/18 07:00:53;;;;;;;;;;;9.00;99.90;;;;;;5095884;27;19968;-71
2023/12/18 07:03:19;;;;;;;;;;;9.10;99.90;;;;;;5101626;27;20290;-71
2023/12/18 07:05:44;;;;;;;;;;;9.00;99.90;;;;;;5088631;28;19924;-71
2023/12/18 07:08:10;;;;;;;;;;;9.10;99.90;;;;;;5101807;27;20461;-71
2023/12/18 07:10:35;;;;;;;;;;;9.00;99.90;;;;;;5099547;27;19924;-71
2023/12/18 07:13:01;;;;;;;;;;;9.00;99.90;;;;;;5082933;27;19927;-71
2023/12/18 07:15:27;;;;;;;;;;;8.90;99.90;;;;;;5108603;27;19980;-72
2023/12/18 07:17:52;;;;;;;;;;;8.80;99.90;;;;;;5110098;28;20003;-70
2023/12/18 07:20:18;;;;;;;;;;;8.80;99.90;;;;;;5089836;27;19980;-70
2023/12/18 07:22:43;;;;;;;;;;;8.70;99.90;;;;;;5105185;27;19967;-71
2023/12/18 07:25:09;;;;;;;;;;;8.60;99.90;;;;;;5109106;27;19928;-74
2023/12/18 07:27:35;;;;;;;;;;;8.50;99.90;;;;;;5099752;27;20535;-75
2023/12/18 07:30:03;;;;;;;;;;;8.50;99.90;;;;;;5080816;28;19997;-75
2023/12/18 07:32:29;;;;;;;;;;;8.50;99.90;;;;;;5079544;28;20615;-74
2023/12/18 07:34:55;;;;;;;;;;;8.40;99.90;;;;;;5085954;28;19924;-75
2023/12/18 07:37:20;;;;;;;;;;;8.50;99.90;;;;;;5088780;28;19955;-74
2023/12/18 07:39:46;;;;;;;;;;;8.40;99.90;;;;;;5086346;28;19932;-75
2023/12/18 07:42:11;;;;;;;;;;;8.30;99.90;;;;;;5106261;28;19947;-73
2023/12/18 07:44:37;;;;;;;;;;;8.40;99.90;;;;;;5112006;27;19924;-72
2023/12/18 07:47:06;;;;;;;;;;;8.30;99.90;;;;;;5101734;28;19924;-72
2023/12/18 07:49:32;;;;;;;;;;;8.40;99.90;;;;;;5108012;28;20386;-71
2023/12/18 07:51:57;;;;;;;;;;;8.40;99.90;;;;;;5088722;28;19931;-73
2023/12/18 07:54:23;;;;;;;;;;;8.40;99.90;;;;;;5079146;28;19928;-72
2023/12/18 07:56:49;;;;;;;;;;;8.40;99.90;;;;;;5087852;28;19932;-72
2023/12/18 07:59:16;;;;;;;;;;;8.40;99.90;;;;;;5083788;28;20049;-73
2023/12/18 08:01:42;;;;;;;;;;;8.30;99.90;;;;;;5102817;27;19924;-72
2023/12/18 08:04:07;;;;;;;;;;;8.40;99.90;;;;;;5091912;27;20467;-72
2023/12/18 08:06:33;;;;;;;;;;;8.40;99.90;;;;;;5089768;28;19934;-72
2023/12/18 08:08:59;;;;;;;;;;;8.40;99.90;;;;;;5093872;28;19932;-73
2023/12/18 08:11:24;;;;;;;;;;;8.40;99.90;;;;;;5086240;28;19924;-73
2023/12/18 08:13:50;;;;;;;;;;;8.40;99.90;;;;;;5117598;27;20068;-72
2023/12/18 08:16:16;;;;;;;;;;;8.40;99.90;;;;;;5089123;28;19972;-72
2023/12/18 08:18:42;;;;;;;;;;;8.40;99.90;;;;;;5084247;28;20011;-71
2023/12/18 08:21:11;;;;;;;;;;;8.40;99.90;;;;;;5108719;28;20056;-71
2023/12/18 08:23:36;;;;;;;;;;;8.40;99.90;;;;;;5103264;28;20047;-72
2023/12/18 08:26:02;;;;;;;;;;;8.40;99.90;;;;;;5093258;28;20088;-72
2023/12/18 08:28:27;;;;;;;;;;;8.40;99.90;;;;;;5094428;28;19931;-72
2023/12/18 08:30:53;;;;;;;;;;;8.30;99.90;;;;;;5103141;28;19935;-73
2023/12/18 08:33:18;;;;;;;;;;;8.40;99.90;;;;;;5093099;28;19931;-72
2023/12/18 08:35:44;;;;;;;;;;;8.30;99.90;;;;;;5067789;28;19931;-71
2023/12/18 08:38:09;;;;;;;;;;;8.40;99.90;;;;;;5069414;28;19925;-70
2023/12/18 08:40:35;;;;;;;;;;;8.30;99.90;;;;;;5074721;28;19947;-70
2023/12/18 08:43:00;;;;;;;;;;;8.40;99.90;;;;;;5107622;28;19935;-70
2023/12/18 08:45:29;;;;;;;;;;;8.30;99.90;;;;;;5075086;28;20562;-71
2023/12/18 08:47:59;;;;;;;;;;;8.30;99.90;;;;;;5091286;28;19976;-71
2023/12/18 08:50:25;;;;;;;;;;;8.30;99.90;;;;;;5090244;28;20625;-71
2023/12/18 08:52:50;;;;;;;;;;;8.30;99.90;;;;;;5081467;28;19942;-70
2023/12/18 08:55:16;;;;;;;;;;;8.40;99.90;;;;;;5083713;28;20387;-70
2023/12/18 08:57:42;;;;;;;;;;;8.30;99.90;;;;;;5089535;28;19923;-70
2023/12/18 09:00:09;;;;;;;;;;;8.30;99.90;;;;;;5087969;28;19920;-71
2023/12/18 09:02:34;;;;;;;;;;;8.30;99.90;;;;;;5085744;28;19950;-70
2023/12/18 09:05:00;;;;;;;;;;;8.30;99.90;;;;;;5094148;28;19921;-70
2023/12/18 09:07:25;;;;;;;;;;;8.30;99.90;;;;;;5098657;28;19932;-70
2023/12/18 09:09:51;;;;;;;;;;;8.40;99.90;;;;;;5090389;28;19932;-71
2023/12/18 09:12:17;;;;;;;;;;;8.40;99.90;;;;;;5084306;28;19920;-70
2023/12/18 09:14:42;;;;;;;;;;;8.40;99.90;;;;;;5086925;28;20452;-70
2023/12/18 09:17:08;;;;;;;;;;;8.40;99.90;;;;;;5089872;28;20432;-70
2023/12/18 09:19:34;;;;;;;;;;;8.40;99.90;;;;;;5087457;28;20000;-70
2023/12/18 09:22:00;;;;;;;;;;;8.40;99.90;;;;;;5070050;27;21280;-70
2023/12/18 09:24:25;;;;;;;;;;;8.40;99.90;;;;;;5083786;28;20429;-70
2023/12/18 09:26:51;;;;;;;;;;;8.40;99.90;;;;;;5108554;27;19935;-70
2023/12/18 09:29:17;;;;;;;;;;;8.40;99.90;;;;;;5092488;28;19992;-71
2023/12/18 09:31:43;;;;;;;;;;;8.40;99.90;;;;;;5088369;28;20352;-70
2023/12/18 09:34:08;;;;;;;;;;;8.50;99.90;;;;;;5100644;28;19928;-70
2023/12/18 09:36:36;;;;;;;;;;;8.50;99.90;;;;;;5097244;27;19932;-71
2023/12/18 09:39:02;;;;;;;;;;;8.50;99.90;;;;;;5115038;27;20387;-71
2023/12/18 09:41:27;;;;;;;;;;;8.50;99.90;;;;;;5104397;28;19924;-71
2023/12/18 09:43:54;;;;;;;;;;;8.60;99.90;;;;;;5091607;28;19935;-70
2023/12/18 09:46:23;;;;;;;;;;;8.50;99.90;;;;;;5085377;28;19924;-70
2023/12/18 09:48:52;;;;;;;;;;;8.60;99.90;;;;;;5088718;28;19924;-70
2023/12/18 09:51:21;;;;;;;;;;;8.50;99.90;;;;;;5105851;28;19932;-70
2023/12/18 09:53:51;;;;;;;;;;;8.60;99.90;;;;;;5109087;28;19924;-70
2023/12/18 09:56:21;;;;;;;;;;;8.60;99.90;;;;;;5093713;28;19923;-71
2023/12/18 09:58:47;;;;;;;;;;;8.60;99.90;;;;;;5106615;28;19924;-71
2023/12/18 10:01:13;;;;;;;;;;;8.60;99.90;;;;;;5104330;28;19935;-70
2023/12/18 10:03:39;;;;;;;;;;;8.60;99.90;;;;;;5106710;27;19931;-70
2023/12/18 10:06:04;;;;;;;;;;;8.70;99.90;;;;;;5084120;28;19924;-70
2023/12/18 10:08:30;;;;;;;;;;;8.60;99.90;;;;;;5088259;28;19931;-70
2023/12/18 10:10:55;;;;;;;;;;;8.60;99.90;;;;;;5089165;28;19930;-71
2023/12/18 10:13:21;;;;;;;;;;;8.60;99.90;;;;;;5087333;28;19947;-70
2023/12/18 10:15:46;;;;;;;;;;;8.60;99.90;;;;;;5088300;28;19924;-70
2023/12/18 10:18:16;;;;;;;;;;;8.60;99.90;;;;;;5081120;28;19924;-70
2023/12/18 10:20:42;;;;;;;;;;;8.60;99.90;;;;;;5090765;28;19926;-70
2023/12/18 10:23:08;;;;;;;;;;;8.50;99.90;;;;;;5104002;27;21643;-70
2023/12/18 10:25:34;;;;;;;;;;;8.60;99.90;;;;;;5110332;27;19935;-70
2023/12/18 10:28:00;;;;;;;;;;;8.60;99.90;;;;;;5103638;28;20010;-70
2023/12/18 10:30:27;;;;;;;;;;;8.50;99.90;;;;;;5083778;28;20007;-70
2023/12/18 10:32:53;;;;;;;;;;;8.50;99.90;;;;;;5099590;28;19928;-70
2023/12/18 10:35:18;;;;;;;;;;;8.60;99.90;;;;;;5090155;28;19930;-71
2023/12/18 10:37:53;;;;;;;;;;;8.50;99.90;;;;;;5094908;28;19923;-70
2023/12/18 10:40:20;;;;;;;;;;;8.60;99.90;;;;;;5085942;28;19923;-70
2023/12/18 10:42:51;;;;;;;;;;;8.60;99.90;;;;;;5092567;28;20448;-71
2023/12/18 10:45:18;;;;;;;;;;;8.70;99.90;;;;;;5093657;28;20286;-71
2023/12/18 10:47:44;;;;;;;;;;;8.80;99.90;;;;;;5113368;28;19927;-71
2023/12/18 10:50:14;;;;;;;;;;;8.80;99.90;;;;;;5117228;27;20389;-71
2023/12/18 10:52:40;;;;;;;;;;;8.80;99.90;;;;;;5151238;27;19976;-71
2023/12/18 10:55:10;;;;;;;;;;;8.80;99.90;;;;;;5116607;27;19927;-71
2023/12/18 10:57:36;;;;;;;;;;;8.80;99.90;;;;;;5109476;27;20515;-71
2023/12/18 11:00:03;;;;;;;;;;;8.80;99.90;;;;;;5109537;27;19978;-71
2023/12/18 11:02:29;;;;;;;;;;;8.90;99.90;;;;;;5096269;27;19924;-71
2023/12/18 11:04:55;;;;;;;;;;;8.80;99.90;;;;;;5103460;28;19924;-72
2023/12/18 11:07:20;;;;;;;;;;;8.90;99.90;;;;;;5097224;27;19932;-71
2023/12/18 11:09:47;;;;;;;;;;;8.80;99.90;;;;;;5084723;27;20348;-71
2023/12/18 11:12:14;;;;;;;;;;;8.90;99.90;;;;;;5126400;27;19927;-71
2023/12/18 11:14:51;;;;;;;;;;;8.90;99.90;;;;;;5111730;27;19927;-71
2023/12/18 11:17:27;;;;;;;;;;;8.90;99.90;;;;;;5127498;27;20386;-71
2023/12/18 11:20:19;;;;;;;;;;;8.90;99.90;;;;;;5111476;28;19927;-71
2023/12/18 11:22:45;;;;;;;;;;;9.00;99.90;;;;;;5088285;27;19931;-71
2023/12/18 11:25:11;;;;;;;;;;;8.90;99.90;;;;;;5126313;27;19955;-74
2023/12/18 11:27:39;;;;;;;;;;;8.90;99.90;;;;;;5133218;27;19976;-73
2023/12/18 11:30:04;;;;;;;;;;;9.00;99.90;;;;;;5127794;27;20414;-72
2023/12/18 11:32:40;;;;;;;;;;;9.00;99.90;;;;;;5140514;27;19930;-74
2023/12/18 11:35:09;;;;;;;;;;;8.90;99.90;;;;;;5110601;27;19930;-73
2023/12/18 11:37:44;;;;;;;;;;;9.00;99.90;;;;;;5120400;27;19967;-73
2023/12/18 11:40:33;;;;;;;;;;;9.00;99.90;;;;;;5119151;27;19934;-73
2023/12/18 11:42:59;;;;;;;;;;;9.00;99.90;;;;;;5112969;27;19932;-73
2023/12/18 11:45:25;;;;;;;;;;;8.90;99.90;;;;;;5141989;27;20533;-72
2023/12/18 11:47:51;;;;;;;;;;;9.00;99.90;;;;;;5082648;28;19930;-72
2023/12/18 11:50:19;;;;;;;;;;;8.90;99.90;;;;;;5112025;27;19974;-72
2023/12/18 11:52:48;;;;;;;;;;;8.90;99.90;;;;;;5123506;27;20444;-73
2023/12/18 11:55:34;;;;;;;;;;;9.00;99.90;;;;;;5128802;27;19945;-72
2023/12/18 11:58:00;;;;;;;;;;;9.00;99.90;;;;;;5116136;27;19984;-72
2023/12/18 12:00:27;;;;;;;;;;;8.90;99.90;;;;;;5126961;27;19924;-73
2023/12/18 12:02:53;;;;;;;;;;;8.90;99.90;;;;;;5124121;27;19928;-73
2023/12/18 12:05:19;;;;;;;;;;;8.90;99.90;;;;;;5123834;27;19924;-73
2023/12/18 12:07:51;;;;;;;;;;;8.90;99.90;;;;;;5098642;27;19984;-72
2023/12/18 12:10:16;;;;;;;;;;;8.90;99.90;;;;;;5108629;27;19924;-73
2023/12/18 12:12:42;;;;;;;;;;;8.90;99.90;;;;;;5132705;27;19976;-73
2023/12/18 12:15:08;;;;;;;;;;;8.90;99.90;;;;;;5115976;27;20305;-73
2023/12/18 12:17:34;;;;;;;;;;;9.00;99.90;;;;;;5129370;27;19927;-73
2023/12/18 12:19:59;;;;;;;;;;;8.90;99.90;;;;;;5128166;27;19931;-73
2023/12/18 12:22:25;;;;;;;;;;;9.00;99.90;;;;;;5131122;27;19945;-73
2023/12/18 12:24:50;;;;;;;;;;;9.00;99.90;;;;;;5127446;27;19938;-72
2023/12/18 12:27:17;;;;;;;;;;;9.00;99.90;;;;;;5128988;27;20350;-73
2023/12/18 12:29:42;;;;;;;;;;;9.00;99.90;;;;;;5129812;27;20072;-73
2023/12/18 12:32:08;;;;;;;;;;;9.00;99.90;;;;;;5121304;27;20002;-73
2023/12/18 12:34:34;;;;;;;;;;;9.00;99.90;;;;;;5126127;27;19932;-76
2023/12/18 12:37:00;;;;;;;;;;;9.00;99.90;;;;;;5127913;27;20287;-72
2023/12/18 12:39:26;;;;;;;;;;;9.00;99.90;;;;;;5113954;27;19919;-72
2023/12/18 12:41:52;;;;;;;;;;;9.00;99.90;;;;;;5129391;27;19931;-73
2023/12/18 12:44:17;;;;;;;;;;;9.00;99.90;;;;;;5127569;27;19920;-72
2023/12/18 12:46:43;;;;;;;;;;;8.90;99.90;;;;;;5121625;27;19924;-73
2023/12/18 12:49:09;;;;;;;;;;;8.90;99.90;;;;;;5084847;28;20417;-73
2023/12/18 12:51:36;;;;;;;;;;;8.90;99.90;;;;;;5102717;28;20356;-73
2023/12/18 12:54:04;;;;;;;;;;;8.90;99.90;;;;;;5093419;28;20309;-73
2023/12/18 12:56:29;;;;;;;;;;;8.90;99.90;;;;;;5094403;28;19928;-73
2023/12/18 12:58:55;;;;;;;;;;;9.00;99.90;;;;;;5099899;28;20027;-72
2023/12/18 13:01:20;;;;;;;;;;;8.90;99.90;;;;;;5071444;28;19924;-72
2023/12/18 13:03:48;;;;;;;;;;;8.90;99.90;;;;;;5089664;28;19923;-72
2023/12/18 13:06:14;;;;;;;;;;;8.90;99.90;;;;;;5091614;28;19945;-72
2023/12/18 13:08:40;;;;;;;;;;;8.90;99.90;;;;;;5102108;28;19924;-73
2023/12/18 13:11:06;;;;;;;;;;;9.00;99.90;;;;;;5080477;28;19934;-73
2023/12/18 13:13:32;;;;;;;;;;;8.90;99.90;;;;;;5075809;28;19980;-72
2023/12/18 13:15:59;;;;;;;;;;;8.90;99.90;;;;;;5102919;28;19924;-73
2023/12/18 13:18:25;;;;;;;;;;;8.90;99.90;;;;;;5099425;28;19957;-72
2023/12/18 13:20:50;;;;;;;;;;;8.90;99.90;;;;;;5096798;28;19924;-73
2023/12/18 13:23:16;;;;;;;;;;;8.90;99.90;;;;;;5096403;28;19924;-72
2023/12/18 13:25:42;;;;;;;;;;;8.90;99.90;;;;;;5098397;28;19924;-74
2023/12/18 13:28:07;;;;;;;;;;;8.90;99.90;;;;;;5097923;28;19942;-74
2023/12/18 13:30:33;;;;;;;;;;;8.90;99.90;;;;;;5091138;28;19928;-70
2023/12/18 13:32:59;;;;;;;;;;;8.90;99.90;;;;;;5087028;28;19936;-69
2023/12/18 13:35:24;;;;;;;;;;;9.00;99.90;;;;;;5102321;28;20015;-70
2023/12/18 13:37:50;;;;;;;;;;;9.00;99.90;;;;;;5107801;28;19924;-70
2023/12/18 13:40:15;;;;;;;;;;;9.10;99.90;;;;;;5082917;28;19931;-70
2023/12/18 13:42:41;;;;;;;;;;;9.10;99.90;;;;;;5102813;28;19932;-70
2023/12/18 13:45:07;;;;;;;;;;;9.10;99.90;;;;;;5068183;28;20080;-70
2023/12/18 13:47:33;;;;;;;;;;;9.10;99.90;;;;;;5085565;28;20381;-70
2023/12/18 13:49:59;;;;;;;;;;;9.10;99.90;;;;;;5087770;28;20018;-70
2023/12/18 13:52:27;;;;;;;;;;;9.10;99.90;;;;;;5105515;27;20341;-69
2023/12/18 13:54:53;;;;;;;;;;;9.10;99.90;;;;;;5122756;27;19927;-69
2023/12/18 13:57:18;;;;;;;;;;;9.20;99.90;;;;;;5128814;27;20469;-76
2023/12/18 13:59:44;;;;;;;;;;;9.10;99.90;;;;;;5116102;27;19919;-74
2023/12/18 14:02:10;;;;;;;;;;;9.20;99.90;;;;;;5119047;27;19923;-75
2023/12/18 14:04:38;;;;;;;;;;;9.20;99.90;;;;;;5083589;28;20456;-76
2023/12/18 14:07:04;;;;;;;;;;;9.20;99.90;;;;;;5110923;27;19931;-75
2023/12/18 14:09:29;;;;;;;;;;;9.20;99.90;;;;;;5073632;27;19927;-74
2023/12/18 14:11:55;;;;;;;;;;;9.20;99.90;;;;;;5090818;27;19970;-75
2023/12/18 14:14:21;;;;;;;;;;;9.20;99.90;;;;;;5109901;27;19928;-73
2023/12/18 14:16:47;;;;;;;;;;;9.20;99.90;;;;;;5113725;27;20018;-75
2023/12/18 14:19:12;;;;;;;;;;;9.20;99.90;;;;;;5097205;27;19928;-75
2023/12/18 14:21:38;;;;;;;;;;;9.20;99.90;;;;;;5110692;27;19923;-74
2023/12/18 14:24:03;;;;;;;;;;;9.30;99.90;;;;;;5108077;27;19924;-72